This is the latest recevied weather packets stored in our database for station/object DC1MAK-13. If no packets are shown the sender has not sent any weather packets the latest 1 day(s).
| Time | Temp. | Humidity | Pressure | Rain* | Wind** | Luminosity | Snow |
|---|---|---|---|---|---|---|---|
| 1777962059 | 14.44° C | 75% | 979.7 hPa | - | 0 m/s | - | - |
| 1777961752 | 13.89° C | 76% | 979.8 hPa | - | 0 m/s | - | - |
| 1777961449 | 13.33° C | 77% | 979.8 hPa | - | 0 m/s | - | - |
| 1777961145 | 13.33° C | 78% | 979.8 hPa | - | 0 m/s | - | - |
| 1777960539 | 12.78° C | 79% | 979.8 hPa | - | 0 m/s | - | - |
| 1777960239 | 12.78° C | 80% | 979.8 hPa | - | 0 m/s | - | - |
| 1777959931 | 12.22° C | 81% | 979.8 hPa | - | 0 m/s | - | - |
| 1777959627 | 12.22° C | 82% | 979.9 hPa | - | 0 m/s | - | - |
| 1777959324 | 11.67° C | 84% | 979.9 hPa | - | 0 m/s | - | - |
| 1777958719 | 11.11° C | 88% | 980 hPa | - | 0 m/s | - | - |
| 1777958413 | 10.56° C | 89% | 980 hPa | - | 0 m/s | - | - |
| 1777958109 | 10° C | 91% | 980 hPa | - | 0 m/s | - | - |
| 1777957806 | 10° C | 91% | 980 hPa | - | 0 m/s | - | - |
| 1777957502 | 9.44° C | 91% | 980.1 hPa | - | 0 m/s | - | - |
| 1777956899 | 8.89° C | 96% | 980 hPa | - | 0 m/s | - | - |
| 1777956591 | 8.33° C | 97% | 980.1 hPa | - | 0 m/s | - | - |
| 1777956288 | 8.33° C | 97% | 980.2 hPa | - | 0 m/s | - | - |
| 1777955984 | 8.33° C | 97% | 980.2 hPa | - | 0 m/s | - | - |
| 1777955379 | 7.78° C | 98% | 980.2 hPa | - | 0 m/s | - | - |
| 1777955079 | 7.78° C | 98% | 980.2 hPa | - | 0 m/s | - | - |
| 1777954770 | 8.33° C | 97% | 980.2 hPa | - | 0 m/s | - | - |
| 1777954466 | 8.33° C | 96% | 980.3 hPa | - | 0 m/s | - | - |
| 1777954162 | 8.33° C | 97% | 980.2 hPa | - | 0 m/s | - | - |
| 1777953559 | 8.33° C | 97% | 980.2 hPa | - | 0 m/s | - | - |
| 1777953252 | 8.33° C | 97% | 980.3 hPa | - | 0 m/s | - | - |
* Rain since midnight (hover to see other rain measurements)
** Current wind speed in m/s (hover to see current wind gust speed)